LEJRLEBZ

Guest
Details From LEJR - Jerez
To LEBZ - Talavera La Real
Flight Number -
Tags generated
Created
Modified
Stats Distance 134 nm / 248 km
Max Altitude 16,500 ft / 5,029 m
Waypoints 3
Social Downloads 1
Likes 0
Share VATSIM

Download

Looking for another format? Having issues loading an existing format? Contact us
Advertisement - Login to hide

Notes

Basic altitude profile: - Ascent Rate: 2500ft/min - Ascent Speed: 250kts - Cruise Altitude: 35000ft - Cruise Speed: 420kts - Descent Rate: 1500ft/min - Descent Speed: 250kts Options: - Use NATs: yes - Use PACOTS: yes - Use low airways: yes - Use high airways: yes

Route

LEJR SANTA LEBZ

ID Type Via Altitude Latitude Longitude Leg Dist Tot Dist Heading (true) Name
O LEJR APT - 0 ft / 0 m 36.74462˚ -6.06011˚ - 0 nm - Jerez
SANTA FIX - 16,500 ft / 5,029 m 37.66854˚ -6.29835˚ 56 nm 56 nm 348° / 348° -
O LEBZ APT - 0 ft / 0 m 38.89127˚ -6.82126˚ 77 nm 134 nm 342° / 341° Talavera La Real

Altitude Profile

Advertisement - Login to hide

LEJR

Details ICAO LEJR (XRY)
Name Jerez
Region Spain
Timezone Europe/Madrid (UTC+1.0)
Stats Elevation 93 ft / 28 m (AMSL)
Location 36.744622° -6.060110°
Runways 2
Magnetic Variation 1.338° W

METAR

LEJR 132130Z 35002KT CAVOK 04/04 Q1028

Decode

TAF

TAF LEJR 131700Z 1318/1418 34004KT CAVOK TX17/1415Z TN04/1406Z

Decode

Departure Runways

ID Width Length Bearing (true) Bearing (mag) Surface Threshold Offset Overrun Length
02 148 ft / 45 m 7,559 ft / 2,304 m 21.34° 22.68° Asphalt 0 ft / 0 m 0 ft / 0 m
03 148 ft / 45 m 7,559 ft / 2,304 m 21.34° 22.68° Asphalt 0 ft / 0 m 0 ft / 0 m
20 148 ft / 45 m 7,559 ft / 2,304 m 201.34° 202.68° Asphalt 0 ft / 0 m 0 ft / 0 m
21 148 ft / 45 m 7,559 ft / 2,304 m 201.34° 202.68° Asphalt 0 ft / 0 m 0 ft / 0 m

LEBZ

Details ICAO LEBZ (BJZ)
Name Talavera La Real
Region Spain
Timezone Europe/Madrid (UTC+1.0)
Stats Elevation 609 ft / 186 m (AMSL)
Location 38.891271° -6.821256°
Runways 1
Magnetic Variation 1.619° W

METAR

LEBZ 132000Z 17002KT 9999 BKN035 11/07 Q1028

Decode

TAF

TAF LEBZ 131700Z 1318/1418 25005KT 9999 SCT030 TX17/1415Z TN05/1404Z PROB40 TEMPO 1402/1410 4000 BR BKN008

Decode

Destination Runways

ID Width Length Bearing (true) Bearing (mag) Surface Threshold Offset Overrun Length
13 197 ft / 60 m 9,350 ft / 2,850 m 125.72° 127.34° Asphalt 0 ft / 0 m 980 ft / 299 m
31 197 ft / 60 m 9,350 ft / 2,850 m 305.74° 307.36° Asphalt 0 ft / 0 m 980 ft / 299 m

Approach Navaids

Runway Type Ident Frequency Range Bearing (true) Bearing (mag) Slope Elevation
31 Localiser ITL 110.50 MHz 18 nm / 33 km 305.70° 307.32° - 609 ft / 186 m (AMSL)
31 Glidescope ITL 110.50 MHz 10 nm / 19 km 305.73° 307.35° 3.00° 609 ft / 186 m (AMSL)
31 DME ITL 110.50 MHz 18 nm / 33 km - - - 639 ft / 195 m (AMSL)